Time;durP1;ratioP1;P1;durP2;ratioP2;P2;SDS_P1;SDS_P2;PMS_P1;PMS_P2;Temp;Humidity;BMP_temperature;BMP_pressure;BME280_temperature;BME280_humidity;BME280_pressure;Samples;Min_cycle;Max_cycle;Signal;HPM_P1;HPM_P2
2022/03/11 00:02:21;;;;;;;2.88;1.77;;;;;;;6.10;53.04;101946.63;4927143;29;20090;-64
2022/03/11 00:04:47;;;;;;;4.60;1.88;;;;;;;6.08;53.12;101946.91;4930471;29;20039;-65
2022/03/11 00:07:13;;;;;;;2.88;1.85;;;;;;;6.12;52.59;101947.91;4916167;29;20047;-65
2022/03/11 00:09:39;;;;;;;2.50;1.50;;;;;;;6.16;52.73;101954.28;4927750;29;20398;-65
2022/03/11 00:12:06;;;;;;;3.75;1.95;;;;;;;5.99;53.33;101946.00;4930423;29;20059;-65
2022/03/11 00:14:31;;;;;;;3.58;1.42;;;;;;;6.04;52.84;101942.47;4929740;29;20051;-64
2022/03/11 00:16:57;;;;;;;4.80;1.80;;;;;;;5.97;52.99;101952.72;4937455;29;20035;-64
2022/03/11 00:19:24;;;;;;;5.97;1.70;;;;;;;5.97;53.14;101942.81;4945966;28;20046;-65
2022/03/11 00:21:50;;;;;;;5.10;1.73;;;;;;;5.84;53.26;101943.56;4951262;28;20118;-64
2022/03/11 00:24:15;;;;;;;2.10;1.50;;;;;;;5.89;53.40;101942.69;4947809;28;20434;-64
2022/03/11 00:26:41;;;;;;;3.72;1.75;;;;;;;5.92;52.76;101950.13;4932658;29;20078;-64
2022/03/11 00:29:07;;;;;;;2.83;1.48;;;;;;;5.82;52.56;101950.25;4927664;29;20082;-65
2022/03/11 00:31:32;;;;;;;2.40;1.20;;;;;;;5.78;52.81;101949.25;4951425;28;20491;-65
2022/03/11 00:33:59;;;;;;;2.47;1.45;;;;;;;5.88;52.45;101949.94;4938108;28;20039;-65
2022/03/11 00:36:25;;;;;;;3.60;1.75;;;;;;;5.82;53.27;101952.91;4940827;29;20545;-64
2022/03/11 00:38:50;;;;;;;3.00;1.48;;;;;;;5.77;52.65;101953.00;4947654;28;20043;-64
2022/03/11 00:41:16;;;;;;;3.80;1.40;;;;;;;5.62;52.63;101955.88;4932722;29;20108;-64
2022/03/11 00:43:42;;;;;;;4.75;1.55;;;;;;;5.70;52.79;101952.56;4941151;29;20054;-65
2022/03/11 00:46:08;;;;;;;3.55;1.63;;;;;;;5.65;52.43;101958.00;4952018;28;20158;-65
2022/03/11 00:48:35;;;;;;;6.95;2.15;;;;;;;5.69;52.40;101956.34;4949762;28;20617;-65
2022/03/11 00:51:01;;;;;;;4.35;1.55;;;;;;;5.67;52.01;101953.16;4940494;28;20110;-65
2022/03/11 00:53:27;;;;;;;5.50;1.88;;;;;;;5.47;52.76;101960.38;4946365;29;20039;-65
2022/03/11 00:55:54;;;;;;;2.00;1.33;;;;;;;5.59;52.48;101959.13;4934204;28;20039;-64
2022/03/11 00:58:19;;;;;;;6.07;1.70;;;;;;;5.54;52.73;101960.00;4949564;28;20482;-65
2022/03/11 01:00:45;;;;;;;1.77;1.33;;;;;;;5.56;52.21;101957.03;4937354;29;20051;-64
2022/03/11 01:03:10;;;;;;;3.33;1.55;;;;;;;5.53;52.20;101953.84;4951562;29;20405;-66
2022/03/11 01:05:36;;;;;;;2.45;1.20;;;;;;;5.59;51.69;101951.94;4949083;29;20039;-66
2022/03/11 01:08:02;;;;;;;2.55;1.30;;;;;;;5.47;52.48;101951.56;4950251;28;20031;-65
2022/03/11 01:10:29;;;;;;;1.80;1.10;;;;;;;5.47;52.46;101955.03;4951211;28;20041;-65
2022/03/11 01:12:54;;;;;;;1.95;1.30;;;;;;;5.39;52.64;101949.53;4947470;28;20039;-65
2022/03/11 01:15:20;;;;;;;1.60;1.20;;;;;;;5.37;52.56;101949.81;4956019;28;20031;-64
2022/03/11 01:17:45;;;;;;;2.92;1.52;;;;;;;5.33;52.93;101946.13;4946553;28;20054;-64
2022/03/11 01:20:12;;;;;;;3.35;1.50;;;;;;;5.27;52.90;101949.16;4951604;28;20126;-65
2022/03/11 01:22:38;;;;;;;3.42;1.25;;;;;;;5.24;53.43;101944.38;4950261;29;20098;-65
2022/03/11 01:25:05;;;;;;;2.30;1.52;;;;;;;5.12;52.86;101942.13;4952089;28;20142;-65
2022/03/11 01:27:30;;;;;;;2.40;1.10;;;;;;;5.16;53.16;101942.34;4939417;28;20039;-65
2022/03/11 01:29:56;;;;;;;3.97;1.38;;;;;;;5.19;52.77;101934.56;4952619;28;20086;-65
2022/03/11 01:32:21;;;;;;;3.08;1.60;;;;;;;5.27;52.93;101939.25;4950517;29;20042;-65
2022/03/11 01:34:47;;;;;;;3.45;1.27;;;;;;;5.16;53.70;101934.34;4949881;29;20242;-64
2022/03/11 01:37:12;;;;;;;2.50;1.27;;;;;;;5.21;52.58;101929.72;4947468;29;20071;-64
2022/03/11 01:39:38;;;;;;;2.78;1.13;;;;;;;5.27;52.72;101933.13;4950147;28;20049;-66
2022/03/11 01:42:03;;;;;;;2.25;1.05;;;;;;;5.19;52.48;101931.09;4947674;28;20036;-65
2022/03/11 01:44:29;;;;;;;4.65;1.67;;;;;;;5.20;52.77;101936.16;4935014;29;20031;-65
2022/03/11 01:46:55;;;;;;;3.05;1.90;;;;;;;5.18;53.02;101935.66;4949712;29;20053;-65
2022/03/11 01:49:22;;;;;;;4.75;1.75;;;;;;;5.19;52.66;101929.22;4950384;28;20109;-64
2022/03/11 01:51:48;;;;;;;3.25;1.20;;;;;;;5.16;52.70;101924.47;4951365;28;20158;-64
2022/03/11 01:54:14;;;;;;;3.38;1.27;;;;;;;5.23;52.60;101924.91;4939593;28;20079;-65
2022/03/11 01:56:40;;;;;;;3.50;1.02;;;;;;;5.08;53.11;101922.44;4946325;29;20054;-65
2022/03/11 01:59:07;;;;;;;5.85;1.92;;;;;;;4.89;53.45;101924.28;4948565;29;20035;-65
2022/03/11 02:01:32;;;;;;;2.13;1.63;;;;;;;4.99;52.86;101921.50;4939734;28;20047;-65
2022/03/11 02:03:58;;;;;;;3.80;1.75;;;;;;;4.92;53.22;101914.88;4949683;28;20046;-65
2022/03/11 02:06:26;;;;;;;4.82;2.20;;;;;;;4.87;52.67;101918.41;4936382;28;20035;-66
2022/03/11 02:08:52;;;;;;;3.33;1.30;;;;;;;4.79;53.67;101907.56;4944225;28;20083;-65
2022/03/11 02:11:19;;;;;;;7.45;1.70;;;;;;;4.87;53.21;101918.41;4948507;28;20049;-66
2022/03/11 02:13:54;;;;;;;2.40;1.35;;;;;;;4.93;53.10;101905.81;4951704;28;20031;-66
2022/03/11 02:16:29;;;;;;;2.72;1.50;;;;;;;4.94;52.84;101908.19;4954479;29;20035;-65
2022/03/11 02:18:55;;;;;;;2.85;1.40;;;;;;;4.89;52.94;101918.94;4953189;28;20757;-66
2022/03/11 02:21:23;;;;;;;7.57;1.85;;;;;;;4.86;53.27;101914.16;4952542;29;20407;-66
2022/03/11 02:23:50;;;;;;;3.30;1.42;;;;;;;4.83;53.12;101901.38;4952826;28;20047;-66
2022/03/11 02:26:20;;;;;;;1.23;1.10;;;;;;;4.72;53.92;101910.59;4936066;28;20465;-64
2022/03/11 02:28:46;;;;;;;8.10;1.60;;;;;;;4.71;53.37;101889.53;4933258;29;20039;-65
2022/03/11 02:31:12;;;;;;;5.07;2.00;;;;;;;4.69;53.17;101911.16;4945720;29;20038;-65
2022/03/11 02:33:39;;;;;;;1.38;1.23;;;;;;;4.75;53.17;101891.34;4953644;28;20114;-64
2022/03/11 02:36:05;;;;;;;8.27;2.28;;;;;;;4.71;53.41;101893.00;4953734;28;20043;-64
2022/03/11 02:38:30;;;;;;;2.50;1.58;;;;;;;4.48;53.33;101883.13;4951710;28;20459;-65
2022/03/11 02:40:56;;;;;;;4.00;1.67;;;;;;;4.52;53.94;101889.47;4953528;28;20071;-63
2022/03/11 02:43:22;;;;;;;4.93;1.65;;;;;;;4.45;53.77;101884.47;4954902;28;20126;-65
2022/03/11 02:45:48;;;;;;;3.25;1.60;;;;;;;4.38;53.87;101873.34;4951141;29;20393;-63
2022/03/11 02:48:13;;;;;;;4.13;1.65;;;;;;;4.46;53.29;101885.28;4947786;29;20039;-64
2022/03/11 02:50:39;;;;;;;3.70;1.42;;;;;;;4.29;53.85;101883.06;4951407;29;20167;-64
2022/03/11 02:53:05;;;;;;;3.75;1.73;;;;;;;4.33;53.84;101888.63;4953558;28;20497;-66
2022/03/11 02:55:30;;;;;;;3.75;1.60;;;;;;;4.33;53.83;101885.94;4952668;29;20047;-64
2022/03/11 02:57:56;;;;;;;5.43;1.52;;;;;;;4.26;54.41;101890.81;4936369;29;20039;-64
2022/03/11 03:00:21;;;;;;;3.75;1.52;;;;;;;4.22;54.67;101897.78;4956161;28;20486;-65
2022/03/11 03:02:47;;;;;;;3.38;2.03;;;;;;;4.21;53.82;101888.19;4947610;28;20411;-65
2022/03/11 03:05:13;;;;;;;3.28;1.48;;;;;;;4.26;54.34;101883.59;4954115;28;20039;-64
2022/03/11 03:07:39;;;;;;;5.35;1.70;;;;;;;4.19;53.38;101883.16;4951927;29;20899;-64
2022/03/11 03:10:06;;;;;;;4.20;1.98;;;;;;;4.20;53.89;101884.72;4952654;29;20067;-64
2022/03/11 03:12:32;;;;;;;3.78;1.63;;;;;;;4.13;53.89;101881.59;4950313;28;20406;-64
2022/03/11 03:14:57;;;;;;;3.10;1.70;;;;;;;4.09;53.94;101885.91;4945329;28;20043;-64
2022/03/11 03:17:28;;;;;;;3.75;1.58;;;;;;;4.05;53.78;101874.22;4951930;29;20039;-65
2022/03/11 03:19:54;;;;;;;3.30;1.45;;;;;;;4.14;54.95;101879.75;4946860;28;20028;-65
2022/03/11 03:22:19;;;;;;;7.38;1.90;;;;;;;4.17;54.56;101871.19;4942848;29;20081;-64
2022/03/11 03:24:45;;;;;;;5.95;1.52;;;;;;;4.00;54.04;101881.47;4950393;29;20046;-65
2022/03/11 03:27:10;;;;;;;1.40;1.20;;;;;;;4.11;53.77;101881.09;4952369;29;20043;-64
2022/03/11 03:29:36;;;;;;;4.35;2.03;;;;;;;4.06;53.83;101878.47;4947871;28;20035;-65
2022/03/11 03:32:03;;;;;;;5.93;1.70;;;;;;;4.10;54.29;101871.53;4950347;28;20050;-64
2022/03/11 03:34:31;;;;;;;12.27;2.00;;;;;;;4.03;54.19;101878.22;4953650;28;20561;-65
2022/03/11 03:36:58;;;;;;;4.13;1.65;;;;;;;4.01;53.62;101875.03;4953858;28;20032;-65
2022/03/11 03:39:24;;;;;;;5.03;1.80;;;;;;;3.96;54.34;101870.56;4944354;29;20117;-65
2022/03/11 03:41:52;;;;;;;3.05;1.50;;;;;;;3.95;53.91;101873.53;4951740;28;20462;-65
2022/03/11 03:44:17;;;;;;;3.75;1.85;;;;;;;3.96;53.94;101870.56;4953280;28;20038;-65
2022/03/11 03:46:43;;;;;;;3.10;1.30;;;;;;;3.97;53.78;101874.03;4951526;28;20035;-65
2022/03/11 03:49:08;;;;;;;2.97;1.70;;;;;;;3.94;54.05;101875.38;4946513;29;20039;-64
2022/03/11 03:51:34;;;;;;;7.25;1.83;;;;;;;3.93;53.33;101870.34;4952719;28;20039;-64
2022/03/11 03:54:00;;;;;;;3.97;2.13;;;;;;;3.89;53.40;101861.31;4947902;28;20509;-64
2022/03/11 03:56:25;;;;;;;1.90;1.40;;;;;;;3.80;53.28;101862.97;4950650;29;20061;-65
2022/03/11 03:58:51;;;;;;;8.63;1.88;;;;;;;3.64;54.00;101852.47;4951649;28;20027;-65
2022/03/11 04:01:16;;;;;;;5.50;2.00;;;;;;;3.61;54.63;101858.34;4937193;28;20514;-64
2022/03/11 04:03:43;;;;;;;3.95;1.98;;;;;;;3.67;55.04;101854.56;4933601;29;20054;-64
2022/03/11 04:06:08;;;;;;;4.97;1.85;;;;;;;3.61;54.34;101855.69;4934149;29;20035;-65
2022/03/11 04:08:34;;;;;;;3.35;1.42;;;;;;;3.67;54.92;101864.44;4948390;29;20035;-65
2022/03/11 04:11:00;;;;;;;5.05;2.13;;;;;;;3.67;53.94;101861.75;4951570;28;20398;-64
2022/03/11 04:13:25;;;;;;;3.70;1.67;;;;;;;3.55;54.41;101848.00;4952395;28;20039;-65
2022/03/11 04:15:51;;;;;;;4.43;2.03;;;;;;;3.56;54.60;101853.03;4944732;28;20106;-64
2022/03/11 04:18:16;;;;;;;3.00;1.75;;;;;;;3.46;54.69;101850.47;4947643;28;20046;-65
2022/03/11 04:20:42;;;;;;;4.70;1.40;;;;;;;3.51;54.32;101845.09;4951951;28;20079;-65
2022/03/11 04:23:07;;;;;;;2.67;1.65;;;;;;;3.43;54.40;101839.56;4951922;29;20035;-64
2022/03/11 04:25:33;;;;;;;2.33;1.80;;;;;;;3.40;55.05;101834.81;4944932;29;20028;-65
2022/03/11 04:27:58;;;;;;;3.53;1.58;;;;;;;3.47;54.03;101833.41;4938056;29;20042;-62
2022/03/11 04:30:24;;;;;;;3.92;1.77;;;;;;;3.35;54.50;101830.31;4950863;28;20114;-65
2022/03/11 04:32:49;;;;;;;4.50;1.42;;;;;;;3.37;54.44;101830.03;4938474;29;20504;-65
2022/03/11 04:35:15;;;;;;;3.63;1.42;;;;;;;3.42;54.94;101828.16;4942042;29;20149;-64
2022/03/11 04:37:40;;;;;;;5.88;1.70;;;;;;;3.34;54.48;101815.44;4932482;29;20446;-64
2022/03/11 04:40:08;;;;;;;3.00;1.40;;;;;;;3.39;54.53;101820.69;4931972;29;20028;-63
2022/03/11 04:42:34;;;;;;;4.43;1.35;;;;;;;3.37;54.26;101816.72;4935094;29;20062;-64
2022/03/11 04:45:01;;;;;;;3.90;1.70;;;;;;;3.27;54.80;101816.81;4939472;28;20099;-63
2022/03/11 04:47:26;;;;;;;3.75;1.90;;;;;;;3.30;54.44;101826.91;4944685;29;20050;-63
2022/03/11 04:49:53;;;;;;;4.72;1.88;;;;;;;3.13;54.62;101813.19;4949323;28;20030;-65
2022/03/11 04:52:18;;;;;;;2.35;1.08;;;;;;;3.06;55.17;101823.34;4951858;29;20206;-64
2022/03/11 04:54:44;;;;;;;3.75;1.83;;;;;;;2.95;55.48;101819.13;4948073;29;20136;-65
2022/03/11 04:57:09;;;;;;;3.28;2.00;;;;;;;3.14;54.53;101830.72;4950430;29;20094;-65
2022/03/11 04:59:34;;;;;;;3.15;1.52;;;;;;;3.06;55.20;101821.44;4949961;28;20043;-63
2022/03/11 05:02:00;;;;;;;6.05;2.25;;;;;;;3.09;54.52;101823.56;4934621;28;20043;-64
2022/03/11 05:04:25;;;;;;;3.15;1.20;;;;;;;3.11;54.15;101828.63;4940891;29;20066;-65
2022/03/11 05:06:51;;;;;;;2.45;1.50;;;;;;;3.00;55.05;101822.56;4941237;28;20027;-64
2022/03/11 05:09:16;;;;;;;4.13;1.50;;;;;;;3.05;54.94;101821.72;4946343;28;20393;-64
2022/03/11 05:11:41;;;;;;;2.42;1.50;;;;;;;3.02;55.09;101817.75;4944711;28;20487;-65
2022/03/11 05:14:07;;;;;;;3.80;1.63;;;;;;;3.05;55.33;101829.72;4939567;28;20115;-65
2022/03/11 05:16:33;;;;;;;6.38;1.50;;;;;;;3.02;55.02;101820.41;4947563;29;20514;-65
2022/03/11 05:18:58;;;;;;;1.58;1.30;;;;;;;3.00;54.42;101819.88;4940611;28;20478;-67
2022/03/11 05:21:23;;;;;;;3.05;1.42;;;;;;;2.96;54.30;101821.50;4949116;29;20046;-66
2022/03/11 05:23:49;;;;;;;9.43;1.38;;;;;;;2.86;54.62;101821.59;4930986;29;20098;-68
2022/03/11 05:26:28;;;;;;;4.50;1.92;;;;;;;2.86;55.25;101824.25;4930646;29;20176;-67
2022/03/11 05:28:55;;;;;;;3.60;1.50;;;;;;;2.87;55.63;101828.47;4944399;29;20481;-66
2022/03/11 05:31:21;;;;;;;4.70;1.48;;;;;;;2.84;55.44;101815.75;4936756;28;20031;-65
2022/03/11 05:33:50;;;;;;;5.20;1.77;;;;;;;2.76;54.94;101818.97;4943537;29;20094;-65
2022/03/11 05:36:16;;;;;;;5.43;2.17;;;;;;;2.89;54.26;101815.72;4940794;28;20031;-65
2022/03/11 05:38:42;;;;;;;3.63;1.70;;;;;;;2.79;54.93;101814.97;4946427;28;20027;-64
2022/03/11 05:41:08;;;;;;;1.73;1.08;;;;;;;2.79;54.63;101810.44;4943473;29;20379;-63
2022/03/11 05:43:33;;;;;;;1.42;1.08;;;;;;;2.78;54.37;101806.19;4942176;28;20031;-63
2022/03/11 05:45:58;;;;;;;4.82;1.67;;;;;;;2.74;55.34;101805.97;4942113;29;20402;-67
2022/03/11 05:48:24;;;;;;;3.17;1.73;;;;;;;2.87;54.49;101815.19;4947853;28;20058;-65
2022/03/11 05:50:49;;;;;;;3.40;1.65;;;;;;;2.87;54.57;101812.53;4950573;28;20063;-67
2022/03/11 05:53:15;;;;;;;2.05;1.08;;;;;;;2.81;53.91;101807.53;4947016;29;20047;-67
2022/03/11 05:55:41;;;;;;;2.65;1.65;;;;;;;2.67;53.99;101815.31;4949209;29;20035;-66
2022/03/11 05:58:06;;;;;;;3.03;1.38;;;;;;;2.84;54.29;101814.94;4930760;29;20046;-65
2022/03/11 06:00:32;;;;;;;4.57;1.92;;;;;;;2.62;54.88;101816.09;4936664;29;20047;-67
2022/03/11 06:02:58;;;;;;;8.68;2.05;;;;;;;2.58;54.68;101828.34;4949114;29;20031;-67
2022/03/11 06:05:23;;;;;;;2.70;1.38;;;;;;;2.61;55.60;101816.38;4949941;28;20545;-66
2022/03/11 06:07:49;;;;;;;1.92;1.20;;;;;;;2.70;55.18;101820.06;4946835;29;20061;-66
2022/03/11 06:10:14;;;;;;;2.72;1.50;;;;;;;2.63;54.80;101811.59;4933188;28;20220;-66
2022/03/11 06:12:40;;;;;;;0.82;0.80;;;;;;;2.57;55.07;101825.97;4934162;28;20035;-67
2022/03/11 06:15:07;;;;;;;2.35;1.30;;;;;;;2.63;55.37;101827.53;4932664;29;20207;-67
2022/03/11 06:17:32;;;;;;;3.70;1.67;;;;;;;2.67;55.22;101828.59;4944111;29;20031;-67
2022/03/11 06:19:58;;;;;;;2.75;1.45;;;;;;;2.68;54.65;101819.53;4939413;29;20394;-67
2022/03/11 06:22:23;;;;;;;1.90;0.90;;;;;;;2.57;54.68;101828.63;4942086;29;20043;-67
2022/03/11 06:24:48;;;;;;;4.45;1.63;;;;;;;2.64;54.93;101829.13;4930193;29;20040;-67
2022/03/11 06:27:14;;;;;;;3.15;1.83;;;;;;;2.72;55.08;101828.56;4928180;29;20071;-65
2022/03/11 06:29:39;;;;;;;1.50;1.02;;;;;;;2.80;53.52;101833.31;4946960;29;20038;-67
2022/03/11 06:32:05;;;;;;;7.30;1.42;;;;;;;2.65;54.42;101846.69;4944959;29;20043;-66
2022/03/11 06:34:31;;;;;;;2.30;1.58;;;;;;;2.63;54.54;101835.53;4945283;29;20075;-66
2022/03/11 06:36:56;;;;;;;5.53;2.15;;;;;;;2.63;53.77;101830.97;4937929;28;20077;-65
2022/03/11 06:39:22;;;;;;;7.45;1.27;;;;;;;2.65;54.23;101828.84;4940584;29;20079;-66
2022/03/11 06:41:47;;;;;;;1.48;1.08;;;;;;;2.64;54.44;101837.91;4943775;28;20107;-67
2022/03/11 06:44:16;;;;;;;3.83;1.90;;;;;;;2.54;54.64;101832.63;4930443;29;20115;-65
2022/03/11 06:46:42;;;;;;;1.38;1.17;;;;;;;2.62;54.59;101844.56;4945390;29;20090;-67
2022/03/11 06:49:07;;;;;;;2.08;1.40;;;;;;;2.59;53.80;101837.13;4946886;28;20031;-67
2022/03/11 06:51:33;;;;;;;1.83;1.30;;;;;;;2.63;54.58;101835.53;4944299;29;20054;-66
2022/03/11 06:53:58;;;;;;;1.20;1.05;;;;;;;2.74;53.26;101851.16;4939321;28;20031;-66
2022/03/11 06:56:23;;;;;;;3.75;1.48;;;;;;;2.74;54.10;101834.41;4949930;29;20114;-66
2022/03/11 06:58:49;;;;;;;2.35;1.50;;;;;;;2.78;53.51;101832.78;4946633;29;20036;-66
2022/03/11 07:01:16;;;;;;;2.15;1.77;;;;;;;2.80;53.60;101835.97;4945886;29;20412;-65
2022/03/11 07:03:42;;;;;;;2.80;1.25;;;;;;;2.69;53.55;101837.88;4942896;29;20043;-67
2022/03/11 07:06:07;;;;;;;1.17;1.08;;;;;;;2.72;53.46;101831.22;4939678;28;20063;-66
2022/03/11 07:08:33;;;;;;;3.92;1.35;;;;;;;2.73;52.94;101830.13;4951112;28;20530;-65
2022/03/11 07:10:59;;;;;;;0.75;0.65;;;;;;;2.77;53.03;101823.22;4940811;29;20502;-67
2022/03/11 07:13:24;;;;;;;3.22;1.23;;;;;;;2.80;52.77;101819.22;4946794;28;20042;-66
2022/03/11 07:15:49;;;;;;;2.08;1.63;;;;;;;2.90;51.92;101830.59;4940033;28;20032;-66
2022/03/11 07:18:15;;;;;;;10.13;1.60;;;;;;;2.86;52.69;101840.19;4937140;28;20042;-65
2022/03/11 07:20:40;;;;;;;7.28;1.52;;;;;;;3.02;52.25;101833.72;4939272;28;20735;-67
2022/03/11 07:23:06;;;;;;;5.38;1.63;;;;;;;2.86;52.96;101834.09;4934606;28;20046;-66
2022/03/11 07:25:32;;;;;;;2.20;1.23;;;;;;;3.03;52.11;101816.69;4954566;28;20036;-65
2022/03/11 07:27:57;;;;;;;1.70;1.13;;;;;;;3.24;51.37;101826.13;4939010;28;20038;-65
2022/03/11 07:30:23;;;;;;;5.60;1.35;;;;;;;3.25;51.14;101821.63;4939359;28;20069;-66
2022/03/11 07:32:50;;;;;;;6.28;1.13;;;;;;;3.36;51.41;101828.44;4947372;28;20031;-66
2022/03/11 07:35:15;;;;;;;4.07;1.52;;;;;;;3.53;51.65;101831.50;4951754;28;20387;-67
2022/03/11 07:37:41;;;;;;;2.22;1.30;;;;;;;3.66;50.29;101834.34;4951832;28;20043;-67
2022/03/11 07:40:08;;;;;;;3.53;1.20;;;;;;;3.96;50.19;101837.81;4945238;28;20034;-66
2022/03/11 07:42:35;;;;;;;6.10;1.60;;;;;;;4.15;50.19;101834.16;4947527;28;20031;-66
2022/03/11 07:45:02;;;;;;;2.10;1.27;;;;;;;4.34;49.95;101831.53;4948324;28;20066;-65
2022/03/11 07:47:27;;;;;;;2.22;1.25;;;;;;;4.56;48.31;101843.28;4940343;28;20454;-68
2022/03/11 07:49:53;;;;;;;1.38;1.00;;;;;;;4.86;47.52;101830.66;4947366;28;20039;-66
2022/03/11 07:52:21;;;;;;;5.47;1.60;;;;;;;4.91;47.78;101834.06;4945084;28;20042;-67
2022/03/11 07:54:46;;;;;;;4.03;1.48;;;;;;;5.06;46.53;101841.84;4933702;28;20070;-67
2022/03/11 07:57:15;;;;;;;9.35;1.95;;;;;;;5.00;48.25;101839.53;4948083;29;20495;-66
2022/03/11 07:59:41;;;;;;;7.68;1.42;;;;;;;5.19;46.80;101830.44;4947244;28;20030;-66
2022/03/11 08:02:07;;;;;;;3.33;1.55;;;;;;;5.36;46.32;101824.59;4941482;28;20331;-66
2022/03/11 08:04:32;;;;;;;3.67;1.33;;;;;;;5.44;45.92;101821.25;4935050;28;20408;-66
2022/03/11 08:07:01;;;;;;;3.95;1.75;;;;;;;5.53;46.07;101824.06;4929950;28;20466;-66
2022/03/11 08:09:28;;;;;;;4.32;1.73;;;;;;;5.61;46.12;101826.88;4948375;28;20035;-67
2022/03/11 08:11:54;;;;;;;4.60;1.85;;;;;;;5.74;46.03;101828.78;4946379;28;20063;-67
2022/03/11 08:14:19;;;;;;;5.10;1.83;;;;;;;5.90;45.70;101818.66;4948942;28;20035;-67
2022/03/11 08:16:46;;;;;;;6.07;1.75;;;;;;;6.00;46.17;101823.81;4945868;28;20039;-67
2022/03/11 08:19:12;;;;;;;4.00;1.45;;;;;;;6.15;44.83;101810.97;4921167;28;22187;-66
2022/03/11 08:21:39;;;;;;;4.13;1.98;;;;;;;6.11;45.20;101814.53;4931216;28;20090;-67
2022/03/11 08:24:05;;;;;;;4.25;2.05;;;;;;;6.25;44.02;101820.69;4937518;28;20510;-65
2022/03/11 08:26:30;;;;;;;4.18;1.95;;;;;;;6.26;44.00;101822.25;4943321;28;20024;-66
2022/03/11 08:28:57;;;;;;;4.10;1.73;;;;;;;6.21;44.13;101814.34;4932546;28;20035;-66
2022/03/11 08:31:23;;;;;;;7.47;1.90;;;;;;;6.49;43.64;101818.59;4935169;28;20039;-66
2022/03/11 08:33:48;;;;;;;4.10;2.10;;;;;;;6.56;43.10;101808.31;4942502;28;20035;-67
2022/03/11 08:36:14;;;;;;;4.10;2.38;;;;;;;6.63;43.94;101799.84;4941361;28;20039;-65
2022/03/11 08:38:40;;;;;;;7.32;2.50;;;;;;;6.60;43.53;101817.28;4997200;22;20043;-66
2022/03/11 08:41:08;;;;;;;4.95;1.77;;;;;;;6.84;43.23;101801.78;4951462;28;20367;-65
2022/03/11 08:43:38;;;;;;;3.63;1.92;;;;;;;7.08;43.04;101796.94;4960531;28;20038;-67
2022/03/11 08:46:04;;;;;;;7.25;2.15;;;;;;;7.21;42.62;101809.53;4969040;28;20065;-66
2022/03/11 08:48:30;;;;;;;4.95;2.42;;;;;;;7.43;41.87;101807.97;4961627;28;20042;-67
2022/03/11 08:50:56;;;;;;;5.43;2.55;;;;;;;7.50;41.54;101793.03;4929068;28;20047;-66
2022/03/11 08:53:21;;;;;;;5.90;2.97;;;;;;;7.63;40.80;101796.72;4943768;28;20066;-65
2022/03/11 08:55:47;;;;;;;4.35;1.85;;;;;;;7.52;41.51;101790.03;4939600;28;20031;-64
2022/03/11 08:58:12;;;;;;;3.83;2.60;;;;;;;7.77;41.49;101794.75;4946543;28;20039;-64
2022/03/11 09:00:37;;;;;;;7.35;2.40;;;;;;;7.84;41.40;101795.91;4948482;29;20059;-66
2022/03/11 09:03:03;;;;;;;4.72;2.08;;;;;;;8.05;40.58;101793.50;4948399;29;20490;-66
2022/03/11 09:05:28;;;;;;;3.13;2.17;;;;;;;8.03;40.08;101791.09;4948251;29;20392;-66
2022/03/11 09:07:54;;;;;;;7.07;2.40;;;;;;;8.03;40.00;101780.38;4931227;29;20479;-66
2022/03/11 09:10:19;;;;;;;6.68;2.47;;;;;;;8.02;40.03;101786.84;4947949;28;20093;-65
2022/03/11 09:12:46;;;;;;;4.15;2.10;;;;;;;8.24;39.65;101796.72;4946519;28;20038;-64
2022/03/11 09:15:13;;;;;;;3.65;1.95;;;;;;;8.35;39.55;101768.53;4929742;29;20493;-66
2022/03/11 09:17:39;;;;;;;5.28;2.10;;;;;;;8.33;39.06;101770.72;4947655;28;20062;-65
2022/03/11 09:20:06;;;;;;;9.10;2.53;;;;;;;8.43;38.20;101766.97;4949673;29;20027;-66
2022/03/11 09:22:33;;;;;;;4.50;2.08;;;;;;;8.36;38.94;101763.97;4932331;29;20390;-67
2022/03/11 09:24:58;;;;;;;7.07;2.60;;;;;;;8.77;38.85;101775.88;4949761;28;20118;-65
2022/03/11 09:27:24;;;;;;;3.47;1.70;;;;;;;8.71;39.10;101758.31;4949644;29;20118;-65
2022/03/11 09:29:50;;;;;;;6.00;2.20;;;;;;;8.81;39.29;101762.59;4948241;29;20063;-65
2022/03/11 09:32:16;;;;;;;5.82;2.45;;;;;;;9.19;37.90;101757.38;4949994;29;20042;-65
2022/03/11 09:34:43;;;;;;;7.75;2.80;;;;;;;9.13;37.42;101755.97;4949828;28;20027;-65
2022/03/11 09:37:09;;;;;;;5.45;2.22;;;;;;;9.06;38.25;101762.59;4921351;29;20035;-66
2022/03/11 09:39:35;;;;;;;4.18;2.30;;;;;;;9.37;37.11;101754.34;4947192;28;20024;-66
2022/03/11 09:42:02;;;;;;;3.30;2.35;;;;;;;9.24;36.15;101749.16;4928849;29;20039;-65
2022/03/11 09:44:27;;;;;;;4.72;2.38;;;;;;;9.34;37.27;101749.63;4942658;28;20057;-66
2022/03/11 09:46:54;;;;;;;8.13;3.05;;;;;;;9.38;37.52;101747.88;4931230;29;20031;-66
2022/03/11 09:49:20;;;;;;;3.40;2.13;;;;;;;9.49;36.64;101724.91;4948151;28;20070;-66
2022/03/11 09:51:46;;;;;;;4.78;2.35;;;;;;;9.46;37.30;101748.97;4947322;29;20066;-66
2022/03/11 09:54:12;;;;;;;6.18;2.30;;;;;;;9.37;36.23;101751.66;4944214;28;20043;-65
2022/03/11 09:56:40;;;;;;;4.68;1.98;;;;;;;9.32;36.42;101726.84;4940178;28;20035;-66
2022/03/11 09:59:07;;;;;;;7.55;2.78;;;;;;;9.18;36.34;101728.91;4944501;28;20019;-65
2022/03/11 10:01:33;;;;;;;4.35;2.47;;;;;;;9.13;36.83;101742.53;4946235;28;20390;-67
2022/03/11 10:03:59;;;;;;;3.88;1.65;;;;;;;9.09;36.75;101732.44;4947927;29;20195;-66
2022/03/11 10:06:42;;;;;;;4.38;1.77;;;;;;;8.99;36.85;101727.38;4940086;28;20027;-66
2022/03/11 10:09:17;;;;;;;5.20;2.03;;;;;;;8.85;37.04;101725.94;4947458;28;20034;-66
2022/03/11 10:11:46;;;;;;;6.75;2.40;;;;;;;8.88;36.78;101739.53;4911535;28;20054;-65
2022/03/11 10:14:12;;;;;;;4.78;2.25;;;;;;;8.73;36.85;101723.88;4944734;28;20043;-66
2022/03/11 10:16:38;;;;;;;7.35;2.72;;;;;;;8.95;37.04;101714.88;4942714;28;20540;-66
2022/03/11 10:19:06;;;;;;;5.40;2.10;;;;;;;8.91;36.76;101712.03;4948460;29;20085;-65
2022/03/11 10:21:33;;;;;;;6.68;2.60;;;;;;;9.16;35.94;101715.81;4944999;28;20442;-65
2022/03/11 10:24:00;;;;;;;6.10;2.08;;;;;;;9.26;35.23;101709.31;4945628;28;20090;-66
2022/03/11 10:26:50;;;;;;;7.53;2.45;;;;;;;9.24;36.33;101719.59;4946662;28;20143;-66
2022/03/11 10:29:18;;;;;;;2.90;1.88;;;;;;;9.23;35.53;101709.97;4933629;28;20047;-64
2022/03/11 10:31:49;;;;;;;3.33;1.70;;;;;;;9.20;36.21;101721.31;4951451;28;20092;-66
2022/03/11 10:34:29;;;;;;;4.43;2.47;;;;;;;9.15;36.02;101711.56;4949213;28;20035;-67
2022/03/11 10:36:57;;;;;;;2.08;1.65;;;;;;;9.14;35.44;101717.25;4951125;28;20039;-66
2022/03/11 10:39:26;;;;;;;7.22;2.20;;;;;;;9.20;35.53;101705.22;4947348;28;20394;-66
2022/03/11 10:42:15;;;;;;;4.70;2.40;;;;;;;9.09;35.86;101688.66;4950647;28;20063;-65
2022/03/11 10:44:54;;;;;;;5.57;2.33;;;;;;;9.25;35.18;101687.03;4919876;29;20380;-65
2022/03/11 10:47:37;;;;;;;2.80;1.88;;;;;;;9.19;35.63;101682.16;4949416;28;20034;-67
2022/03/11 10:50:08;;;;;;;5.07;2.22;;;;;;;9.24;35.42;101684.66;4948967;28;20019;-66
2022/03/11 10:52:52;;;;;;;7.30;2.22;;;;;;;9.24;36.38;101682.75;4950660;29;20067;-66
2022/03/11 10:55:26;;;;;;;4.75;1.88;;;;;;;9.39;36.10;101676.84;4923726;29;20105;-64
2022/03/11 10:57:53;;;;;;;6.30;2.80;;;;;;;9.51;35.29;101684.25;4950861;29;20023;-66
2022/03/11 11:00:26;;;;;;;5.07;1.98;;;;;;;9.59;34.89;101676.16;4951209;28;20031;-65
2022/03/11 11:03:00;;;;;;;7.70;2.50;;;;;;;9.58;35.10;101679.19;4947361;28;20059;-66
2022/03/11 11:05:27;;;;;;;3.65;2.08;;;;;;;9.74;35.20;101688.28;4932282;29;20210;-66
2022/03/11 11:07:53;;;;;;;5.97;1.88;;;;;;;9.78;35.05;101689.22;4953280;29;20512;-67
2022/03/11 11:10:21;;;;;;;5.00;2.28;;;;;;;9.64;34.36;101680.59;4954014;29;20046;-65
2022/03/11 11:12:48;;;;;;;4.47;2.03;;;;;;;9.66;34.34;101671.06;4953148;28;20035;-64
2022/03/11 11:15:17;;;;;;;5.28;2.00;;;;;;;9.46;35.01;101657.56;4949024;28;20417;-65
2022/03/11 11:17:46;;;;;;;4.78;2.42;;;;;;;9.53;34.39;101671.28;4953585;29;20039;-65
2022/03/11 11:20:38;;;;;;;3.92;2.10;;;;;;;9.64;34.61;101651.00;4953473;29;20394;-66
2022/03/11 11:23:06;;;;;;;4.93;2.20;;;;;;;9.72;34.94;101674.34;4953700;29;20458;-65
2022/03/11 11:25:33;;;;;;;5.63;2.20;;;;;;;9.93;34.33;101645.59;4947402;29;20057;-67
2022/03/11 11:28:12;;;;;;;2.90;1.83;;;;;;;9.88;34.31;101653.88;4940923;29;20126;-64
2022/03/11 11:30:39;;;;;;;3.95;1.70;;;;;;;10.15;34.82;101633.78;4948522;29;20046;-64
2022/03/11 11:33:05;;;;;;;3.55;2.08;;;;;;;10.24;34.11;101656.84;4951811;28;20045;-66